Anglian Lady — VOLP — position and weather

sailwx.info

Track history (hours):
 
Tides and Currents Weather Stations Pressure Air Temp Water Temp Dewpoint Dewpoint Depression Visibility Wind Speed Wind Dir Waves Ship Positions

Anglian Lady

Last reported at 2015-Jun-27 13:33 UTC. Time now 2015-Jul-04 10:07 UTC.
Position N 46°30' W 084°20'.

Length 32 m.

Type: Tug. MMSI: 316002238.

Date/timePositionNaut miles runAvg speedWind from/ knotsBaromVisibWave heightAir tempDewpointWater temp
2015-Jun-27 13:33N 46°30' W 084°20'0 0.0
2015-Jun-27 12:28N 46°30' W 084°20'0 0.0
2015-Jun-27 11:33N 46°30' W 084°20'0 0.0
2015-Jun-27 10:33N 46°30' W 084°20'0 0.0
2015-Jun-27 09:33N 46°30' W 084°20'0 0.0
2015-Jun-27 08:33N 46°30' W 084°20'0 0.0
2015-Jun-27 07:33N 46°30' W 084°20'0 0.0
2015-Jun-27 06:33N 46°30' W 084°20'32 0.7
2015-Jun-25 10:11N 46°03' W 083°57'8 5.1
2015-Jun-25 08:33N 45°55' W 083°55'7 7.3
2015-Jun-25 07:33N 45°52' W 084°05'7 7.1
2015-Jun-25 06:33N 45°50' W 084°15'7 7.0
2015-Jun-25 05:33N 45°50' W 084°25'7 7.1
2015-Jun-25 04:33N 45°51' W 084°35'7 6.8
2015-Jun-25 03:33N 45°49' W 084°44'6 6.5
2015-Jun-25 02:33N 45°49' W 084°54'7 7.0
2015-Jun-25 01:33N 45°50' W 085°04'6 5.6
2015-Jun-25 00:33N 45°46' W 085°09'7 7.1
2015-Jun-24 23:33N 45°40' W 085°15'7 7.0
2015-Jun-24 22:33N 45°34' W 085°21'7 7.0
2015-Jun-24 21:33N 45°29' W 085°27'7 7.0
2015-Jun-24 20:33N 45°23' W 085°33'7 7.2
2015-Jun-24 19:33N 45°17' W 085°39'7 7.1
2015-Jun-24 18:33N 45°12' W 085°45'7 7.1
2015-Jun-24 17:33N 45°06' W 085°51'7 7.3
2015-Jun-24 16:33N 45°00' W 085°58'  
2015-Jun-20 14:21N 45°03' W 085°55'7 7.5
2015-Jun-20 13:28N 45°09' W 085°50'7 7.7
2015-Jun-20 12:33N 45°14' W 085°43'7 7.4
2015-Jun-20 11:33N 45°20' W 085°37'7 7.3
2015-Jun-20 10:33N 45°26' W 085°31'7 7.1
2015-Jun-20 09:33N 45°32' W 085°25'7 6.9
2015-Jun-20 08:33N 45°37' W 085°19'7 6.9
2015-Jun-20 07:33N 45°43' W 085°13'6 6.1
2015-Jun-20 06:33N 45°48' W 085°09'6 6.0
2015-Jun-20 05:33N 45°50' W 085°00'8 7.7
2015-Jun-20 04:33N 45°49' W 084°49'8 7.7
2015-Jun-20 03:33N 45°50' W 084°38'8 7.5
2015-Jun-20 02:33N 45°52' W 084°28'8 7.6
2015-Jun-20 01:33N 45°53' W 084°17'8 7.7
2015-Jun-20 00:33N 45°54' W 084°06'38 3.1
2015-Jun-19 12:09N 46°31' W 084°23'2 0.1
2015-Jun-18 11:25N 46°30' W 084°20'0 0.0
2015-Jun-18 10:32N 46°30' W 084°20'0 0.0
2015-Jun-18 09:24N 46°30' W 084°20'  
Track history (hours):
 
Tides and Currents Weather Stations Pressure Air Temp Water Temp Dewpoint Dewpoint Depression Visibility Wind Speed Wind Dir Waves Ship Positions

Anglian Lady

Last reported at 2015-Jun-27 13:33 UTC. Time now 2015-Jul-04 10:07 UTC.
Position N 46°30' W 084°20'.

Length 32 m.

Type: Tug. MMSI: 316002238.

Date/timePositionNaut miles runAvg speedWind from/ knotsBaromVisibWave heightAir tempDewpointWater temp
2015-Jun-27 13:33N 46°30' W 084°20'0 0.0
2015-Jun-27 12:28N 46°30' W 084°20'0 0.0
2015-Jun-27 11:33N 46°30' W 084°20'0 0.0
2015-Jun-27 10:33N 46°30' W 084°20'0 0.0
2015-Jun-27 09:33N 46°30' W 084°20'0 0.0
2015-Jun-27 08:33N 46°30' W 084°20'0 0.0
2015-Jun-27 07:33N 46°30' W 084°20'0 0.0
2015-Jun-27 06:33N 46°30' W 084°20'32 0.7
2015-Jun-25 10:11N 46°03' W 083°57'8 5.1
2015-Jun-25 08:33N 45°55' W 083°55'7 7.3
2015-Jun-25 07:33N 45°52' W 084°05'7 7.1
2015-Jun-25 06:33N 45°50' W 084°15'7 7.0
2015-Jun-25 05:33N 45°50' W 084°25'7 7.1
2015-Jun-25 04:33N 45°51' W 084°35'7 6.8
2015-Jun-25 03:33N 45°49' W 084°44'6 6.5
2015-Jun-25 02:33N 45°49' W 084°54'7 7.0
2015-Jun-25 01:33N 45°50' W 085°04'6 5.6
2015-Jun-25 00:33N 45°46' W 085°09'7 7.1
2015-Jun-24 23:33N 45°40' W 085°15'7 7.0
2015-Jun-24 22:33N 45°34' W 085°21'7 7.0
2015-Jun-24 21:33N 45°29' W 085°27'7 7.0
2015-Jun-24 20:33N 45°23' W 085°33'7 7.2
2015-Jun-24 19:33N 45°17' W 085°39'7 7.1
2015-Jun-24 18:33N 45°12' W 085°45'7 7.1
2015-Jun-24 17:33N 45°06' W 085°51'7 7.3
2015-Jun-24 16:33N 45°00' W 085°58'  
2015-Jun-20 14:21N 45°03' W 085°55'7 7.5
2015-Jun-20 13:28N 45°09' W 085°50'7 7.7
2015-Jun-20 12:33N 45°14' W 085°43'7 7.4
2015-Jun-20 11:33N 45°20' W 085°37'7 7.3
2015-Jun-20 10:33N 45°26' W 085°31'7 7.1
2015-Jun-20 09:33N 45°32' W 085°25'7 6.9
2015-Jun-20 08:33N 45°37' W 085°19'7 6.9
2015-Jun-20 07:33N 45°43' W 085°13'6 6.1
2015-Jun-20 06:33N 45°48' W 085°09'6 6.0
2015-Jun-20 05:33N 45°50' W 085°00'8 7.7
2015-Jun-20 04:33N 45°49' W 084°49'8 7.7
2015-Jun-20 03:33N 45°50' W 084°38'8 7.5
2015-Jun-20 02:33N 45°52' W 084°28'8 7.6
2015-Jun-20 01:33N 45°53' W 084°17'8 7.7
2015-Jun-20 00:33N 45°54' W 084°06'38 3.1
2015-Jun-19 12:09N 46°31' W 084°23'2 0.1
2015-Jun-18 11:25N 46°30' W 084°20'0 0.0
2015-Jun-18 10:32N 46°30' W 084°20'0 0.0
2015-Jun-18 09:24N 46°30' W 084°20'  

Dump ship's entire track history